Time;durP1;ratioP1;P1;durP2;ratioP2;P2;SDS_P1;SDS_P2;PMS_P1;PMS_P2;Temp;Humidity;BMP_temperature;BMP_pressure;BME280_temperature;BME280_humidity;BME280_pressure;Samples;Min_cycle;Max_cycle;Signal;HPM_P1;HPM_P2
2022/04/27 00:01:50;;;;;;;14.77;7.17;;;6.10;99.90;;;;;;5082552;28;20617;-77
2022/04/27 00:04:17;;;;;;;14.00;7.47;;;6.10;99.90;;;;;;5076075;28;20216;-78
2022/04/27 00:06:44;;;;;;;14.33;7.47;;;6.00;99.90;;;;;;5060448;28;20711;-77
2022/04/27 00:09:11;;;;;;;14.80;7.37;;;6.00;99.90;;;;;;5083528;28;20271;-78
2022/04/27 00:11:39;;;;;;;12.37;7.27;;;5.90;99.90;;;;;;5081348;28;20258;-77
2022/04/27 00:14:06;;;;;;;12.17;7.50;;;5.90;99.90;;;;;;5080323;28;20227;-81
2022/04/27 00:16:33;;;;;;;14.80;7.37;;;5.90;99.90;;;;;;5064503;28;20202;-78
2022/04/27 00:18:59;;;;;;;10.37;7.27;;;5.80;99.90;;;;;;5078365;28;20290;-78
2022/04/27 00:21:26;;;;;;;13.53;7.87;;;5.80;99.90;;;;;;5074790;28;20774;-79
2022/04/27 00:23:53;;;;;;;13.53;7.83;;;5.80;99.90;;;;;;5077794;28;20232;-77
2022/04/27 00:26:20;;;;;;;13.43;7.77;;;5.70;99.90;;;;;;5076400;28;20720;-79
2022/04/27 00:28:46;;;;;;;13.53;7.90;;;5.70;99.90;;;;;;5075005;28;20678;-81
2022/04/27 00:31:13;;;;;;;10.63;7.40;;;5.70;99.90;;;;;;5076063;28;20557;-78
2022/04/27 00:33:40;;;;;;;16.03;8.03;;;5.60;99.90;;;;;;5076921;28;20206;-78
2022/04/27 00:36:07;;;;;;;12.27;7.40;;;5.60;99.90;;;;;;5081839;28;20243;-78
2022/04/27 00:38:37;;;;;;;12.57;8.30;;;5.60;99.90;;;;;;5059259;28;20314;-77
2022/04/27 00:41:06;;;;;;;11.97;7.30;;;5.60;99.90;;;;;;5061744;28;20207;-77
2022/04/27 00:43:42;;;;;;;11.70;7.70;;;5.50;99.90;;;;;;5074479;28;20612;-76
2022/04/27 00:46:09;;;;;;;11.70;7.50;;;5.30;99.90;;;;;;5078568;28;20713;-77
2022/04/27 00:48:39;;;;;;;13.47;7.90;;;5.60;99.90;;;;;;5075482;28;20201;-78
2022/04/27 00:51:07;;;;;;;10.67;7.47;;;5.40;99.90;;;;;;5080611;28;20224;-78
2022/04/27 00:53:35;;;;;;;13.20;7.83;;;5.40;99.90;;;;;;5080418;28;20261;-79
2022/04/27 00:56:02;;;;;;;9.93;7.57;;;5.30;99.90;;;;;;5065182;28;20210;-77
2022/04/27 00:58:29;;;;;;;18.00;8.67;;;5.30;99.90;;;;;;5064413;28;20346;-78
2022/04/27 01:01:16;;;;;;;21.80;7.97;;;5.30;99.90;;;;;;5077070;28;20679;-79
2022/04/27 01:03:43;;;;;;;16.73;8.63;;;5.20;99.90;;;;;;5069171;28;20205;-78
2022/04/27 01:06:10;;;;;;;13.30;8.60;;;5.20;99.90;;;;;;5074470;28;20307;-78
2022/04/27 01:08:37;;;;;;;17.07;7.87;;;5.10;99.90;;;;;;5077102;28;20226;-77
2022/04/27 01:11:05;;;;;;;12.53;8.07;;;5.10;99.90;;;;;;5081851;28;20322;-79
2022/04/27 01:13:32;;;;;;;14.60;7.67;;;5.10;99.90;;;;;;5081591;28;20238;-78
2022/04/27 01:16:01;;;;;;;16.40;8.50;;;5.10;99.90;;;;;;5082309;28;20744;-77
2022/04/27 01:18:29;;;;;;;17.30;7.57;;;5.10;99.90;;;;;;5059819;28;20339;-79
2022/04/27 01:20:56;;;;;;;12.93;8.30;;;5.00;99.90;;;;;;5079822;28;20269;-78
2022/04/27 01:23:23;;;;;;;14.80;8.37;;;5.00;99.90;;;;;;5079593;28;20226;-78
2022/04/27 01:26:01;;;;;;;14.37;8.57;;;5.00;99.90;;;;;;5079578;28;20575;-77
2022/04/27 01:28:30;;;;;;;11.47;7.50;;;4.90;99.90;;;;;;5073279;28;20203;-79
2022/04/27 01:31:01;;;;;;;14.23;9.03;;;4.90;99.90;;;;;;5063587;28;20196;-78
2022/04/27 01:33:34;;;;;;;13.33;8.77;;;4.80;99.90;;;;;;5081505;28;20204;-81
2022/04/27 01:36:02;;;;;;;13.83;8.47;;;4.80;99.90;;;;;;5082499;28;20243;-78
2022/04/27 01:38:37;;;;;;;12.47;8.67;;;4.80;99.90;;;;;;5081119;28;20680;-79
2022/04/27 01:41:05;;;;;;;13.03;8.73;;;4.80;99.90;;;;;;5076843;28;20200;-79
2022/04/27 01:43:33;;;;;;;13.97;9.17;;;4.80;99.90;;;;;;5080266;28;20262;-78
2022/04/27 01:46:01;;;;;;;14.27;8.73;;;4.80;99.90;;;;;;5075938;28;20278;-77
2022/04/27 01:48:27;;;;;;;15.97;8.80;;;4.80;99.90;;;;;;5060771;28;20211;-79
2022/04/27 01:50:55;;;;;;;21.73;9.47;;;4.80;99.90;;;;;;5076017;28;20205;-79
2022/04/27 01:56:07;;;;;;;24.23;11.83;;;4.70;99.90;;;;;;5077681;28;20235;-79
2022/04/27 01:58:34;;;;;;;28.73;13.10;;;4.70;99.90;;;;;;5076088;28;20709;-78
2022/04/27 02:01:01;;;;;;;23.00;11.97;;;4.60;99.90;;;;;;5078652;28;20965;-78
2022/04/27 02:03:27;;;;;;;18.37;11.80;;;4.60;99.90;;;;;;5074746;28;20604;-79
2022/04/27 02:05:56;;;;;;;21.60;11.13;;;4.60;99.90;;;;;;5082020;28;20364;-77
2022/04/27 02:08:23;;;;;;;16.70;10.40;;;4.60;99.90;;;;;;5076587;28;20232;-77
2022/04/27 02:10:50;;;;;;;20.40;9.40;;;4.50;99.90;;;;;;5072371;28;20283;-79
2022/04/27 02:13:17;;;;;;;18.03;8.30;;;4.60;99.90;;;;;;5077768;28;20196;-81
2022/04/27 02:15:44;;;;;;;13.37;8.77;;;4.50;99.90;;;;;;5065856;28;20204;-78
2022/04/27 02:18:11;;;;;;;11.97;8.60;;;4.50;99.90;;;;;;5080292;28;20208;-80
2022/04/27 02:20:39;;;;;;;15.37;8.77;;;4.40;99.90;;;;;;5082542;28;20563;-79
2022/04/27 02:23:06;;;;;;;14.77;9.27;;;4.40;99.90;;;;;;5084474;28;20226;-77
2022/04/27 02:25:33;;;;;;;14.47;7.80;;;4.40;99.90;;;;;;5069077;28;20212;-78
2022/04/27 02:28:00;;;;;;;18.30;9.10;;;4.40;99.90;;;;;;5084203;28;20273;-77
2022/04/27 02:30:27;;;;;;;14.53;8.37;;;4.40;99.90;;;;;;5073930;28;20253;-78
2022/04/27 02:32:53;;;;;;;13.90;8.60;;;4.40;99.90;;;;;;5064412;28;20725;-77
2022/04/27 02:35:21;;;;;;;16.30;8.20;;;4.30;99.90;;;;;;5067844;28;20307;-81
2022/04/27 02:37:47;;;;;;;13.73;8.40;;;4.30;99.90;;;;;;5083492;28;20722;-78
2022/04/27 02:40:14;;;;;;;16.23;9.63;;;4.30;99.90;;;;;;5079712;28;20330;-78
2022/04/27 02:42:41;;;;;;;13.70;8.23;;;4.30;99.90;;;;;;5081968;28;20330;-78
2022/04/27 02:45:08;;;;;;;15.70;8.97;;;4.20;99.90;;;;;;5079161;28;20306;-77
2022/04/27 02:47:35;;;;;;;13.87;8.97;;;4.20;99.90;;;;;;5065711;28;20203;-78
2022/04/27 02:52:48;;;;;;;15.23;7.40;;;4.20;99.90;;;;;;5072065;28;21298;-78
2022/04/27 02:55:15;;;;;;;14.70;8.30;;;4.10;99.90;;;;;;5054798;28;20739;-78
2022/04/27 02:57:42;;;;;;;17.77;9.03;;;4.10;99.90;;;;;;5084784;28;20191;-79
2022/04/27 03:00:09;;;;;;;10.97;8.17;;;4.10;99.90;;;;;;5080275;28;20219;-79
2022/04/27 03:02:39;;;;;;;14.23;8.43;;;4.00;99.90;;;;;;5059815;28;20211;-77
2022/04/27 03:05:07;;;;;;;15.10;9.07;;;4.00;99.90;;;;;;5083336;28;20208;-78
2022/04/27 03:07:34;;;;;;;14.33;8.20;;;4.00;99.90;;;;;;5076501;28;20730;-79
2022/04/27 03:10:01;;;;;;;13.30;8.47;;;4.00;99.90;;;;;;5083081;28;20644;-77
2022/04/27 03:12:28;;;;;;;14.37;8.37;;;4.00;99.90;;;;;;5078780;28;20232;-78
2022/04/27 03:14:55;;;;;;;13.93;8.70;;;3.90;99.90;;;;;;5083313;28;20238;-78
2022/04/27 03:17:22;;;;;;;14.83;8.50;;;4.00;99.90;;;;;;5087431;28;20232;-77
2022/04/27 03:19:54;;;;;;;15.33;8.27;;;3.90;99.90;;;;;;5085756;28;20235;-77
2022/04/27 03:22:22;;;;;;;19.70;9.47;;;;;;;;;;5082806;28;20297;-78
2022/04/27 03:24:49;;;;;;;14.00;8.57;;;3.80;99.90;;;;;;5079084;28;20212;-78
2022/04/27 03:27:15;;;;;;;12.63;8.40;;;3.80;99.90;;;;;;5084094;28;20719;-79
2022/04/27 03:29:42;;;;;;;13.70;7.87;;;3.90;99.90;;;;;;5078594;28;20203;-79
2022/04/27 03:32:10;;;;;;;12.73;7.70;;;;;;;;;;5078508;28;20328;-79
2022/04/27 03:34:37;;;;;;;15.93;7.87;;;3.70;99.90;;;;;;5076472;28;20738;-78
2022/04/27 03:37:04;;;;;;;12.97;8.20;;;3.70;99.90;;;;;;5080596;28;20728;-79
2022/04/27 03:39:31;;;;;;;12.97;8.17;;;3.70;99.90;;;;;;5083600;28;20653;-79
2022/04/27 03:42:08;;;;;;;16.73;8.73;;;3.70;99.90;;;;;;5082240;28;20292;-77
2022/04/27 03:44:35;;;;;;;15.33;8.27;;;3.60;99.90;;;;;;5065552;28;20566;-79
2022/04/27 03:47:03;;;;;;;13.30;7.67;;;;;;;;;;5079524;28;20196;-78
2022/04/27 03:49:30;;;;;;;11.83;8.00;;;3.50;99.90;;;;;;5080645;28;20543;-78
2022/04/27 03:51:58;;;;;;;13.30;7.73;;;3.50;99.90;;;;;;5066642;28;20547;-80
2022/04/27 03:54:25;;;;;;;15.40;7.73;;;3.50;99.90;;;;;;5059753;28;20212;-79
2022/04/27 03:56:52;;;;;;;12.93;7.77;;;3.40;99.90;;;;;;5080497;28;20207;-79
2022/04/27 03:59:19;;;;;;;11.77;7.60;;;3.40;99.90;;;;;;5080486;28;20219;-79
2022/04/27 04:01:45;;;;;;;14.93;7.83;;;3.40;99.90;;;;;;5081729;28;20986;-78
2022/04/27 04:04:12;;;;;;;12.50;7.37;;;3.40;99.90;;;;;;5083086;28;20203;-78
2022/04/27 04:06:39;;;;;;;12.20;7.60;;;3.30;99.90;;;;;;5080927;28;20251;-79
2022/04/27 04:09:06;;;;;;;15.30;8.33;;;3.30;99.90;;;;;;5075983;28;20674;-78
2022/04/27 04:11:33;;;;;;;11.13;7.03;;;3.30;99.90;;;;;;5079872;28;20237;-78
2022/04/27 04:14:00;;;;;;;16.40;7.53;;;3.30;99.90;;;;;;5070765;28;20242;-78
2022/04/27 04:16:27;;;;;;;12.63;7.83;;;3.30;99.90;;;;;;5055585;28;20204;-78
2022/04/27 04:18:54;;;;;;;15.57;8.50;;;3.30;99.90;;;;;;5074997;28;20201;-78
2022/04/27 04:21:20;;;;;;;13.93;7.23;;;3.30;99.90;;;;;;5052710;28;20219;-78
2022/04/27 04:23:47;;;;;;;15.17;8.57;;;3.30;99.90;;;;;;5081310;28;20367;-78
2022/04/27 04:28:59;;;;;;;11.67;7.57;;;3.20;99.90;;;;;;5078811;28;20314;-77
2022/04/27 04:31:26;;;;;;;13.83;8.20;;;3.20;99.90;;;;;;5076308;28;20205;-77
2022/04/27 04:33:53;;;;;;;14.07;8.30;;;3.20;99.90;;;;;;5077617;28;20501;-79
2022/04/27 04:36:20;;;;;;;14.30;7.50;;;3.20;99.90;;;;;;5074682;28;20200;-78
2022/04/27 04:38:46;;;;;;;16.13;7.70;;;3.20;99.90;;;;;;5081322;28;20281;-81
2022/04/27 04:41:13;;;;;;;16.70;7.90;;;3.20;99.90;;;;;;5082767;28;20203;-79
2022/04/27 04:43:40;;;;;;;12.67;7.43;;;3.20;99.90;;;;;;5080890;28;20236;-79
2022/04/27 04:46:07;;;;;;;13.23;7.40;;;3.10;99.90;;;;;;5082376;28;20238;-79
2022/04/27 04:48:34;;;;;;;13.83;7.47;;;3.10;99.90;;;;;;5078963;28;20226;-78
2022/04/27 04:51:01;;;;;;;14.57;7.67;;;3.10;99.90;;;;;;5063175;28;20238;-77
2022/04/27 04:53:28;;;;;;;14.80;8.23;;;3.10;99.90;;;;;;5079526;28;20309;-77
2022/04/27 04:55:54;;;;;;;18.80;7.67;;;3.10;99.90;;;;;;5076295;28;20538;-78
2022/04/27 04:58:21;;;;;;;14.87;7.90;;;3.20;99.90;;;;;;5075677;28;20339;-78
2022/04/27 05:00:48;;;;;;;12.00;7.43;;;3.20;99.90;;;;;;5081796;28;20280;-77
2022/04/27 05:03:16;;;;;;;16.00;8.10;;;3.20;99.90;;;;;;5082473;28;20254;-78
2022/04/27 05:05:44;;;;;;;13.40;7.70;;;3.20;99.90;;;;;;5080423;28;20211;-80
2022/04/27 05:08:11;;;;;;;22.30;8.77;;;3.30;99.90;;;;;;5077603;28;20230;-79
2022/04/27 05:10:38;;;;;;;12.43;7.87;;;3.30;99.90;;;;;;5082458;28;20207;-77
2022/04/27 05:13:05;;;;;;;19.37;8.03;;;3.30;99.90;;;;;;5074129;28;20258;-78
2022/04/27 05:15:33;;;;;;;13.33;7.63;;;3.40;99.90;;;;;;5080464;28;20251;-78
2022/04/27 05:18:00;;;;;;;15.53;8.80;;;3.40;99.90;;;;;;5057100;28;20728;-78
2022/04/27 05:20:26;;;;;;;13.43;7.93;;;3.40;99.90;;;;;;5065901;28;20894;-79
2022/04/27 05:22:56;;;;;;;15.43;7.43;;;3.50;99.90;;;;;;5079076;28;20218;-80
2022/04/27 05:25:23;;;;;;;23.10;8.83;;;3.60;99.90;;;;;;5077469;28;20300;-78
2022/04/27 05:27:50;;;;;;;15.00;8.03;;;3.60;99.90;;;;;;5079405;28;20203;-79
2022/04/27 05:33:03;;;;;;;15.00;8.40;;;3.80;99.90;;;;;;5077303;28;20459;-79
2022/04/27 05:35:30;;;;;;;17.83;8.03;;;3.90;99.90;;;;;;5075774;28;20657;-78
2022/04/27 05:37:57;;;;;;;17.63;8.30;;;4.00;99.90;;;;;;5079421;28;20212;-78
2022/04/27 05:40:25;;;;;;;16.60;8.33;;;4.10;99.90;;;;;;5073031;28;20279;-79
2022/04/27 05:42:52;;;;;;;13.77;8.10;;;4.30;99.90;;;;;;5082547;28;20228;-79
2022/04/27 05:45:19;;;;;;;14.47;8.90;;;4.30;99.90;;;;;;5078334;28;20215;-79
2022/04/27 05:47:46;;;;;;;14.77;7.60;;;4.40;99.90;;;;;;5074893;28;20222;-79
2022/04/27 05:50:13;;;;;;;16.30;8.70;;;4.50;99.90;;;;;;5077893;28;20671;-79
2022/04/27 05:52:56;;;;;;;12.07;7.93;;;4.60;99.90;;;;;;5078249;28;20331;-78
2022/04/27 05:55:23;;;;;;;15.77;8.20;;;4.70;99.90;;;;;;5077752;28;20211;-78
2022/04/27 05:57:50;;;;;;;17.07;8.40;;;4.80;99.90;;;;;;5066138;28;20270;-79
2022/04/27 06:00:19;;;;;;;16.60;8.70;;;5.00;99.90;;;;;;5077611;28;20267;-79
2022/04/27 06:02:46;;;;;;;15.70;9.07;;;5.10;99.90;;;;;;5078835;28;20269;-79
2022/04/27 06:05:13;;;;;;;24.73;10.87;;;5.30;99.90;;;;;;5087275;28;20217;-79
2022/04/27 06:07:40;;;;;;;15.17;7.60;;;6.30;99.90;;;;;;5085368;28;20315;-79
2022/04/27 06:10:08;;;;;;;11.70;7.03;;;7.60;99.90;;;;;;5090508;28;20263;-78
2022/04/27 06:12:36;;;;;;;12.43;6.07;;;;;;;;;;5083471;28;20700;-78
2022/04/27 06:15:11;;;;;;;8.47;6.03;;;10.80;99.90;;;;;;5084438;28;20204;-79
2022/04/27 06:17:38;;;;;;;9.63;6.57;;;12.40;99.90;;;;;;5080894;28;20249;-80
2022/04/27 06:20:05;;;;;;;7.53;5.63;;;13.80;99.90;;;;;;5076990;28;20300;-80
2022/04/27 06:22:32;;;;;;;10.17;5.47;;;15.10;99.90;;;;;;5085013;28;20222;-81
2022/04/27 06:24:59;;;;;;;8.35;5.53;;;16.00;99.90;;;;;;5085847;28;20668;-80
2022/04/27 06:27:26;;;;;;;9.27;5.68;;;16.90;99.90;;;;;;5062625;28;20244;-80
2022/04/27 06:29:53;;;;;;;9.30;5.30;;;17.40;99.90;;;;;;5080989;28;20591;-80
2022/04/27 06:32:19;;;;;;;8.07;5.15;;;18.00;99.90;;;;;;5079189;28;20291;-81
2022/04/27 06:34:46;;;;;;;7.00;4.70;;;18.60;99.90;;;;;;5082652;28;20695;-81
2022/04/27 06:37:13;;;;;;;6.82;4.80;;;19.10;99.90;;;;;;5065971;28;20348;-80
2022/04/27 06:39:40;;;;;;;7.95;4.82;;;19.60;99.90;;;;;;5080867;28;20684;-81
2022/04/27 06:42:08;;;;;;;7.25;4.90;;;20.00;99.90;;;;;;5081127;28;20223;-82
2022/04/27 06:44:36;;;;;;;8.20;4.57;;;20.60;99.90;;;;;;5076543;28;20207;-81
2022/04/27 06:47:07;;;;;;;6.93;5.15;;;20.80;99.90;;;;;;5085593;28;20208;-81
2022/04/27 06:49:34;;;;;;;8.57;4.75;;;21.20;99.90;;;;;;5080869;28;20211;-80
2022/04/27 06:52:01;;;;;;;9.77;5.05;;;21.60;97.40;;;;;;5074344;28;20331;-81
2022/04/27 06:54:28;;;;;;;9.07;5.03;;;21.80;96.10;;;;;;5075171;28;20289;-81
2022/04/27 06:56:55;;;;;;;8.98;5.57;;;21.90;95.10;;;;;;5081836;28;20364;-83
2022/04/27 06:59:22;;;;;;;9.00;4.72;;;21.80;94.10;;;;;;5067039;28;20291;-81
2022/04/27 07:01:50;;;;;;;6.55;5.22;;;22.20;94.20;;;;;;5080305;28;20204;-81
2022/04/27 07:04:19;;;;;;;8.25;5.15;;;22.60;93.80;;;;;;5086755;28;20211;-80
2022/04/27 07:06:49;;;;;;;7.43;5.40;;;22.70;92.40;;;;;;5067363;28;20312;-82
2022/04/27 07:09:16;;;;;;;8.90;4.97;;;22.80;91.90;;;;;;5067589;28;20558;-81
2022/04/27 07:11:49;;;;;;;6.43;4.43;;;22.70;90.60;;;;;;5066985;28;20596;-82
2022/04/27 07:14:16;;;;;;;8.27;5.47;;;22.90;89.60;;;;;;5085320;28;20725;-82
2022/04/27 07:16:43;;;;;;;8.57;4.57;;;23.20;87.20;;;;;;5080370;28;20192;-82
2022/04/27 07:19:11;;;;;;;7.82;4.72;;;23.30;86.20;;;;;;5085539;28;20219;-80
2022/04/27 07:21:38;;;;;;;6.90;3.90;;;23.10;84.30;;;;;;5067441;28;20235;-81
2022/04/27 07:24:07;;;;;;;5.75;3.13;;;23.30;84.00;;;;;;5068846;28;20199;-81
2022/04/27 07:26:34;;;;;;;8.10;3.58;;;23.10;82.60;;;;;;5085594;28;20667;-80
2022/04/27 07:29:01;;;;;;;7.47;3.08;;;23.30;81.50;;;;;;5083362;28;20290;-84
2022/04/27 07:31:28;;;;;;;4.32;2.90;;;23.60;79.70;;;;;;5083869;28;20247;-81
2022/04/27 07:33:55;;;;;;;7.40;3.53;;;23.60;78.10;;;;;;5080135;28;20227;-82
2022/04/27 07:36:22;;;;;;;8.88;3.20;;;23.40;76.70;;;;;;5068257;28;20210;-82
2022/04/27 07:38:55;;;;;;;7.60;3.70;;;23.40;76.40;;;;;;5067688;28;20212;-81
2022/04/27 07:41:22;;;;;;;5.00;3.20;;;23.70;75.40;;;;;;5079578;28;20337;-81
2022/04/27 07:43:49;;;;;;;7.97;4.20;;;23.70;74.20;;;;;;5081398;28;20239;-82
2022/04/27 07:46:16;;;;;;;7.13;3.95;;;23.60;73.60;;;;;;5084948;28;20208;-81
2022/04/27 07:48:43;;;;;;;8.38;3.60;;;23.30;73.40;;;;;;5083835;28;20673;-82
2022/04/27 07:51:10;;;;;;;3.17;2.67;;;23.20;73.00;;;;;;5068418;28;20204;-82
2022/04/27 07:53:37;;;;;;;2.78;1.95;;;23.10;72.40;;;;;;5085463;28;20216;-81
2022/04/27 07:56:05;;;;;;;4.10;2.35;;;23.10;70.60;;;;;;5067332;28;20199;-81
2022/04/27 07:58:32;;;;;;;3.15;1.85;;;23.10;68.20;;;;;;5082881;28;20237;-81
2022/04/27 08:01:00;;;;;;;6.72;3.35;;;22.80;67.10;;;;;;5082746;28;20687;-83
2022/04/27 08:03:27;;;;;;;5.32;3.10;;;22.80;67.90;;;;;;5084553;28;20226;-82
2022/04/27 08:05:54;;;;;;;3.20;2.30;;;22.90;68.40;;;;;;5083189;28;20655;-82
2022/04/27 08:08:22;;;;;;;4.28;3.03;;;22.80;67.80;;;;;;5066117;28;20223;-81
2022/04/27 08:10:53;;;;;;;3.15;2.33;;;22.70;67.30;;;;;;5082939;28;20676;-81
2022/04/27 08:13:20;;;;;;;2.72;2.15;;;22.30;68.10;;;;;;5066955;28;20204;-81
2022/04/27 08:15:48;;;;;;;5.63;2.13;;;22.10;67.60;;;;;;5064822;28;20208;-82
2022/04/27 08:18:17;;;;;;;3.42;2.08;;;22.00;67.20;;;;;;5066445;28;20214;-82
2022/04/27 08:23:34;;;;;;;3.17;1.95;;;22.40;67.00;;;;;;5080600;28;20730;-81
2022/04/27 08:26:04;;;;;;;3.70;2.10;;;22.40;65.00;;;;;;5078652;28;20206;-82
2022/04/27 08:28:31;;;;;;;3.63;2.15;;;21.80;64.90;;;;;;5084588;28;20210;-81
2022/04/27 08:30:59;;;;;;;3.40;2.45;;;21.30;66.80;;;;;;5082207;28;20397;-81
2022/04/27 08:33:26;;;;;;;5.55;2.25;;;21.00;67.10;;;;;;5065257;28;20200;-82
2022/04/27 08:36:00;;;;;;;4.68;2.33;;;21.20;66.30;;;;;;5082633;28;20239;-82
2022/04/27 08:38:47;;;;;;;5.35;2.00;;;21.10;66.80;;;;;;5079497;28;20644;-81
2022/04/27 08:41:14;;;;;;;2.85;2.10;;;21.30;67.20;;;;;;5083341;28;20238;-81
2022/04/27 08:43:41;;;;;;;3.95;2.45;;;21.70;66.20;;;;;;5084537;28;20661;-82
2022/04/27 08:46:10;;;;;;;3.95;2.38;;;22.00;65.20;;;;;;5079806;28;20663;-82
2022/04/27 08:48:37;;;;;;;2.95;2.45;;;21.70;64.70;;;;;;5042982;28;20198;-84
2022/04/27 08:51:05;;;;;;;3.25;2.40;;;21.30;65.40;;;;;;5079869;28;20691;-80
2022/04/27 08:53:33;;;;;;;2.63;2.10;;;21.10;66.00;;;;;;5064978;28;20220;-81
2022/04/27 08:56:01;;;;;;;5.78;2.65;;;21.30;66.90;;;;;;5074744;28;20208;-81
2022/04/27 08:58:28;;;;;;;4.45;2.92;;;21.30;67.60;;;;;;5063845;28;20663;-82
2022/04/27 09:01:10;;;;;;;4.00;2.35;;;21.40;66.30;;;;;;5075291;28;20578;-80
2022/04/27 09:03:41;;;;;;;5.45;2.05;;;20.80;67.50;;;;;;5079164;28;20242;-84
2022/04/27 09:06:12;;;;;;;4.30;2.65;;;20.40;68.10;;;;;;5086428;28;20201;-82
2022/04/27 09:08:52;;;;;;;5.57;2.70;;;20.00;68.90;;;;;;5066790;28;20235;-83
2022/04/27 09:11:28;;;;;;;6.15;2.72;;;19.60;70.00;;;;;;5066318;28;20238;-79
2022/04/27 09:14:03;;;;;;;3.45;2.28;;;19.50;70.10;;;;;;5082980;28;20207;-82
2022/04/27 09:22:44;;;;;;;4.03;2.35;;;18.90;70.80;;;;;;5075361;28;20238;-81
2022/04/27 09:25:11;;;;;;;4.45;2.22;;;18.80;71.50;;;;;;5064498;28;20259;-81
2022/04/27 09:27:38;;;;;;;4.65;2.85;;;18.60;72.00;;;;;;5078756;28;20254;-82
2022/04/27 09:30:14;;;;;;;6.55;2.80;;;18.50;71.50;;;;;;5082789;28;20272;-82
2022/04/27 09:32:51;;;;;;;5.55;2.92;;;18.30;72.40;;;;;;5087464;28;20204;-81
2022/04/27 09:35:30;;;;;;;5.65;2.83;;;17.90;72.60;;;;;;5083624;28;20275;-80
2022/04/27 09:38:19;;;;;;;7.00;2.33;;;17.90;72.90;;;;;;5083715;28;20215;-81
2022/04/27 09:40:48;;;;;;;5.15;2.38;;;17.90;73.40;;;;;;5078843;28;20291;-81
2022/04/27 09:43:16;;;;;;;4.95;2.22;;;17.90;73.50;;;;;;5081548;28;20228;-80
2022/04/27 09:45:43;;;;;;;4.45;2.25;;;17.70;73.20;;;;;;5062724;28;20204;-81
2022/04/27 09:48:18;;;;;;;2.75;2.30;;;17.70;73.90;;;;;;5079065;28;20645;-81
2022/04/27 09:50:47;;;;;;;3.58;2.42;;;17.90;73.40;;;;;;5076755;28;20208;-80
2022/04/27 09:53:18;;;;;;;6.72;2.33;;;17.70;73.70;;;;;;5086877;28;20714;-81
2022/04/27 09:55:48;;;;;;;3.92;2.33;;;18.00;75.30;;;;;;5070968;28;20215;-80
2022/04/27 09:58:18;;;;;;;3.80;2.83;;;18.20;74.10;;;;;;5086166;28;20200;-80
2022/04/27 10:00:48;;;;;;;2.97;2.63;;;18.40;73.30;;;;;;5086829;28;20228;-81
2022/04/27 10:03:20;;;;;;;4.72;3.03;;;18.60;74.10;;;;;;5072363;28;20610;-82
2022/04/27 10:05:48;;;;;;;8.68;3.42;;;18.60;72.80;;;;;;5065486;28;20306;-81
2022/04/27 10:08:15;;;;;;;4.32;3.25;;;18.70;73.60;;;;;;5078809;28;20281;-80
2022/04/27 10:10:45;;;;;;;3.72;2.58;;;18.70;73.10;;;;;;5077165;28;20208;-81
2022/04/27 10:13:14;;;;;;;4.00;2.80;;;18.60;74.00;;;;;;5083516;28;20279;-81
2022/04/27 10:15:43;;;;;;;4.78;3.28;;;18.70;74.00;;;;;;5084897;28;20664;-80
2022/04/27 10:18:19;;;;;;;4.18;2.78;;;18.70;74.00;;;;;;5080201;28;20349;-80
2022/04/27 10:20:54;;;;;;;5.15;2.90;;;18.80;73.50;;;;;;5097574;28;20220;-81
2022/04/27 10:23:24;;;;;;;3.38;2.78;;;18.90;74.10;;;;;;5084036;28;20283;-79
2022/04/27 10:26:12;;;;;;;6.13;2.72;;;19.00;73.90;;;;;;5083543;28;20208;-82
2022/04/27 10:28:50;;;;;;;4.65;2.80;;;18.90;74.40;;;;;;5082220;28;20215;-81
2022/04/27 10:31:48;;;;;;;4.10;2.45;;;18.80;73.60;;;;;;5078475;28;20212;-81
2022/04/27 10:34:21;;;;;;;3.70;2.05;;;18.70;73.50;;;;;;5085901;28;20196;-81
2022/04/27 10:36:50;;;;;;;2.78;2.00;;;18.60;72.50;;;;;;5069825;28;20658;-81
2022/04/27 10:39:19;;;;;;;4.32;2.28;;;18.30;73.00;;;;;;5067863;28;20455;-80
2022/04/27 10:41:53;;;;;;;4.90;2.13;;;18.20;74.10;;;;;;5083635;28;20220;-82
2022/04/27 10:44:20;;;;;;;3.50;2.03;;;18.30;74.30;;;;;;5083974;28;20643;-82
2022/04/27 10:46:47;;;;;;;5.30;2.40;;;18.20;74.30;;;;;;5078631;28;20212;-80
2022/04/27 10:49:24;;;;;;;6.30;2.20;;;18.20;74.30;;;;;;5081533;28;20211;-80
2022/04/27 10:52:08;;;;;;;4.25;2.08;;;18.00;74.70;;;;;;5077491;28;20243;-81
2022/04/27 10:54:37;;;;;;;5.93;2.67;;;18.10;75.60;;;;;;5080381;28;20666;-81
2022/04/27 10:57:16;;;;;;;11.38;4.15;;;18.20;76.00;;;;;;5084449;28;20235;-81
2022/04/27 10:59:50;;;;;;;7.10;2.97;;;18.20;76.70;;;;;;5083804;28;20210;-79
2022/04/27 11:02:40;;;;;;;4.85;3.20;;;18.20;77.10;;;;;;5083618;28;20239;-80
2022/04/27 11:05:13;;;;;;;5.68;3.08;;;18.20;78.90;;;;;;5065896;28;20295;-81
2022/04/27 11:07:56;;;;;;;5.35;2.88;;;18.30;78.30;;;;;;5076046;28;21236;-80
2022/04/27 11:10:24;;;;;;;5.53;3.15;;;18.40;78.60;;;;;;5082381;28;20322;-80
2022/04/27 11:12:52;;;;;;;3.80;3.03;;;18.40;78.00;;;;;;5076194;28;20257;-82
2022/04/27 11:15:27;;;;;;;7.65;4.18;;;18.30;78.00;;;;;;5078632;28;20630;-81
2022/04/27 11:18:03;;;;;;;6.45;3.15;;;18.20;77.90;;;;;;5081897;28;20706;-80
2022/04/27 11:20:39;;;;;;;7.72;3.35;;;18.00;78.70;;;;;;5082673;28;20290;-81
2022/04/27 11:23:08;;;;;;;5.40;2.90;;;18.10;79.50;;;;;;5078416;28;20219;-81
2022/04/27 11:25:37;;;;;;;6.22;3.38;;;18.00;78.90;;;;;;5079324;28;20204;-80
2022/04/27 11:28:08;;;;;;;6.50;2.88;;;17.90;79.70;;;;;;5077042;28;20628;-80
2022/04/27 11:30:35;;;;;;;2.97;2.33;;;17.90;79.70;;;;;;5061942;28;20208;-80
2022/04/27 11:33:02;;;;;;;4.75;2.67;;;18.30;79.00;;;;;;5062476;28;20566;-81
2022/04/27 11:35:38;;;;;;;4.53;2.40;;;18.40;79.10;;;;;;5074061;28;20640;-81
2022/04/27 11:38:06;;;;;;;6.43;2.55;;;18.60;78.80;;;;;;5076157;28;20223;-82
2022/04/27 11:40:37;;;;;;;4.40;2.67;;;18.80;77.20;;;;;;5078006;28;20635;-81
2022/04/27 11:43:06;;;;;;;5.10;2.83;;;18.90;77.10;;;;;;5089131;28;20259;-80
2022/04/27 11:45:33;;;;;;;5.50;3.00;;;19.20;77.00;;;;;;5068447;28;20732;-81
2022/04/27 11:48:01;;;;;;;6.00;2.65;;;19.10;76.20;;;;;;5086338;28;20281;-82
2022/04/27 11:50:34;;;;;;;5.43;2.25;;;19.00;76.40;;;;;;5062737;28;20208;-82
2022/04/27 11:53:03;;;;;;;5.97;2.85;;;18.90;76.10;;;;;;5086049;28;20226;-81
2022/04/27 11:55:32;;;;;;;5.13;2.58;;;18.80;76.50;;;;;;5087409;28;20211;-82
2022/04/27 11:58:03;;;;;;;3.97;2.70;;;18.80;77.80;;;;;;5071468;28;20364;-82
2022/04/27 12:00:31;;;;;;;3.30;2.47;;;18.90;76.90;;;;;;5082758;28;20294;-81
2022/04/27 12:03:03;;;;;;;4.10;2.88;;;18.90;75.90;;;;;;5078812;28;20644;-81
2022/04/27 12:05:32;;;;;;;5.38;2.90;;;18.90;75.60;;;;;;5077891;28;20572;-81
2022/04/27 12:08:02;;;;;;;4.15;2.88;;;18.90;76.30;;;;;;5079697;28;20265;-81
2022/04/27 12:10:38;;;;;;;6.82;2.90;;;19.00;76.30;;;;;;5081365;28;20226;-80
2022/04/27 12:13:05;;;;;;;6.72;2.95;;;19.10;76.10;;;;;;5062253;28;20204;-81
2022/04/27 12:15:33;;;;;;;5.85;2.90;;;18.90;75.30;;;;;;5077670;28;20576;-80
2022/04/27 12:18:01;;;;;;;5.28;2.70;;;18.70;75.50;;;;;;5059996;28;20229;-81
2022/04/27 12:20:38;;;;;;;5.38;2.50;;;18.50;75.40;;;;;;5067776;28;20614;-83
2022/04/27 12:23:15;;;;;;;4.45;2.50;;;18.30;76.40;;;;;;5086443;28;20318;-84
2022/04/27 12:26:00;;;;;;;5.00;2.45;;;18.20;76.90;;;;;;5065187;28;20606;-81
2022/04/27 12:28:32;;;;;;;4.10;2.25;;;18.20;75.70;;;;;;5065232;28;20215;-82
2022/04/27 12:31:03;;;;;;;6.93;2.60;;;18.30;77.00;;;;;;5075370;28;20670;-83
2022/04/27 12:33:43;;;;;;;5.15;2.50;;;18.40;76.00;;;;;;5084549;28;20593;-82
2022/04/27 12:39:04;;;;;;;6.95;2.72;;;18.50;75.70;;;;;;5081135;28;20235;-83
2022/04/27 12:41:32;;;;;;;4.03;2.47;;;18.50;75.00;;;;;;5067426;28;20216;-83
2022/04/27 12:44:05;;;;;;;4.80;3.22;;;18.40;75.60;;;;;;5076863;28;20269;-85
2022/04/27 12:46:57;;;;;;;5.28;2.65;;;18.40;76.30;;;;;;5067473;28;20547;-81
2022/04/27 12:49:25;;;;;;;5.05;2.72;;;18.40;77.40;;;;;;5066180;28;20204;-83
2022/04/27 12:51:52;;;;;;;3.72;2.90;;;18.40;76.20;;;;;;5084005;28;20633;-83
2022/04/27 12:54:19;;;;;;;4.45;2.72;;;18.30;76.80;;;;;;5064212;28;20207;-81
2022/04/27 12:56:46;;;;;;;4.13;2.53;;;18.20;76.60;;;;;;5077543;28;20918;-84
2022/04/27 12:59:13;;;;;;;5.20;3.17;;;18.20;76.50;;;;;;5078441;28;20669;-83
2022/04/27 13:01:40;;;;;;;3.55;2.90;;;18.30;76.50;;;;;;5083707;28;20219;-82
2022/04/27 13:04:07;;;;;;;4.15;2.28;;;18.20;75.70;;;;;;5078696;28;20311;-80
2022/04/27 13:06:34;;;;;;;3.78;2.60;;;18.10;76.00;;;;;;5075305;28;20212;-82
2022/04/27 13:11:56;;;;;;;3.58;2.42;;;18.10;75.90;;;;;;5082168;28;20208;-82
2022/04/27 13:14:27;;;;;;;3.33;2.45;;;18.20;76.20;;;;;;5078545;28;20199;-82
2022/04/27 13:16:55;;;;;;;4.22;2.88;;;18.20;76.60;;;;;;5081285;28;20284;-86
2022/04/27 13:19:23;;;;;;;3.05;2.17;;;18.00;76.60;;;;;;5079789;28;20209;-82
2022/04/27 13:21:50;;;;;;;6.13;2.63;;;17.90;77.00;;;;;;5079625;28;20232;-83
2022/04/27 13:24:17;;;;;;;3.40;2.33;;;17.90;77.50;;;;;;5059665;28;20207;-83